LLZ weather

Lanzillota Airport
Ciudad de Lavalle, Mendoza Province, Argentina

Public forecast

Using degrees Celsius for public forecast. Weather courtesy of forecast.io.

Closest aviation weather report (METAR) to Lanzillota Airport

Closest report is El Plumerillo Airport, 10.4 nm (19.2 km) SW. Retrieved 2020/08/05 14:00 UTC (4 minutes ago):

SAME 051400Z 05002KT CAVOK 15/05 Q1016

Closest aviation forecast (TAF) to Lanzillota Airport

Closest forecast is El Plumerillo Airport, 10.4 nm (19.2 km) SW. Retrieved 2020/08/05 12:00 UTC (2 hours ago):

TAF SAME 051100Z 0512/0612 05005KT CAVOK TX24/0520Z TN04/0611Z BECMG 0518/0520 29010KT BECMG 0520/0522 18010KT